createdAt,value
2018-09-28T00:00:14.492Z,7.40
2018-09-28T00:02:42.369Z,9.00
2018-09-28T00:05:09.885Z,3.20
2018-09-28T00:07:37.384Z,9.80
2018-09-28T00:10:04.942Z,6.40
2018-09-28T00:12:32.798Z,5.60
2018-09-28T00:15:00.307Z,7.00
2018-09-28T00:17:27.792Z,7.00
2018-09-28T00:19:55.346Z,7.40
2018-09-28T00:22:23.220Z,6.00
2018-09-28T00:24:50.701Z,6.40
2018-09-28T00:27:18.948Z,5.60
2018-09-28T00:29:46.468Z,6.00
2018-09-28T00:32:14.431Z,6.40
2018-09-28T00:34:41.927Z,6.40
2018-09-28T00:37:09.472Z,7.00
2018-09-28T00:39:36.972Z,6.80
2018-09-28T00:42:05.932Z,7.20
2018-09-28T00:44:33.519Z,6.40
2018-09-28T00:47:01.053Z,5.60
2018-09-28T00:49:28.589Z,8.00
2018-09-28T00:51:56.600Z,9.60
2018-09-28T00:54:24.117Z,6.80
2018-09-28T00:56:51.681Z,6.80
2018-09-28T00:59:19.191Z,6.00
2018-09-28T01:01:47.796Z,6.60
2018-09-28T01:04:15.296Z,6.40
2018-09-28T01:06:42.799Z,8.80
2018-09-28T01:09:11.435Z,6.40
2018-09-28T01:11:38.935Z,7.60
2018-09-28T01:14:06.464Z,9.20
2018-09-28T01:16:33.950Z,10.80
2018-09-28T01:19:01.905Z,11.20
2018-09-28T01:21:29.512Z,6.80
2018-09-28T01:23:56.990Z,10.80
2018-09-28T01:26:24.499Z,12.00
2018-09-28T01:28:52.343Z,9.00
2018-09-28T01:31:19.868Z,9.20
2018-09-28T01:33:47.388Z,12.20
2018-09-28T01:36:14.875Z,10.40
2018-09-28T01:38:44.794Z,12.60
2018-09-28T01:41:12.314Z,11.60
2018-09-28T01:43:39.855Z,14.80
2018-09-28T01:46:07.330Z,13.20
2018-09-28T01:48:35.241Z,10.00
2018-09-28T01:51:02.762Z,7.80
2018-09-28T01:53:30.235Z,8.80
2018-09-28T01:55:58.334Z,4.80
2018-09-28T01:58:25.801Z,6.60
2018-09-28T02:00:54.722Z,7.00
2018-09-28T02:03:22.190Z,9.00
2018-09-28T02:05:53.768Z,7.40
2018-09-28T02:08:21.262Z,9.00
2018-09-28T02:10:48.793Z,6.40
2018-09-28T02:13:17.654Z,7.20
2018-09-28T02:15:45.186Z,9.20
2018-09-28T02:18:12.759Z,8.40
2018-09-28T02:20:40.268Z,7.00
2018-09-28T02:23:08.260Z,5.20
2018-09-28T02:25:35.799Z,7.00
2018-09-28T02:28:03.336Z,7.80
2018-09-28T02:30:30.834Z,9.40
2018-09-28T02:32:58.647Z,7.00
2018-09-28T02:35:26.143Z,7.80
2018-09-28T02:37:53.675Z,7.00
2018-09-28T02:40:21.175Z,9.00
2018-09-28T02:42:49.119Z,10.00
2018-09-28T02:45:16.628Z,10.40
2018-09-28T02:47:44.207Z,15.80
2018-09-28T02:50:11.733Z,9.40
2018-09-28T02:52:39.564Z,9.40
2018-09-28T02:55:07.636Z,12.60
2018-09-28T02:57:35.147Z,12.40
2018-09-28T03:00:02.656Z,16.20
2018-09-28T03:02:30.661Z,15.00
2018-09-28T03:04:58.473Z,15.40
2018-09-28T03:07:26.003Z,18.60
2018-09-28T03:09:53.539Z,15.00
2018-09-28T03:12:21.475Z,19.20
2018-09-28T03:14:49.603Z,16.40
2018-09-28T03:17:17.368Z,12.60
2018-09-28T03:19:45.293Z,16.00
2018-09-28T03:22:12.817Z,17.60
2018-09-28T03:24:40.368Z,16.00
2018-09-28T03:27:08.271Z,9.00
2018-09-28T03:29:35.820Z,17.00
2018-09-28T03:32:03.370Z,18.00
2018-09-28T03:34:31.441Z,13.80
2018-09-28T03:36:59.313Z,16.80
2018-09-28T03:39:26.829Z,13.00
2018-09-28T03:41:54.323Z,11.40
2018-09-28T03:44:22.906Z,14.60
2018-09-28T03:46:50.864Z,14.20
2018-09-28T03:49:18.388Z,9.00
2018-09-28T03:51:45.944Z,9.60
2018-09-28T03:54:13.776Z,9.60
2018-09-28T03:56:41.287Z,15.20
2018-09-28T03:59:08.827Z,12.20
2018-09-28T04:01:36.314Z,10.00
2018-09-28T04:04:07.658Z,12.80
2018-09-28T04:06:35.168Z,11.80
2018-09-28T04:09:02.755Z,10.40
2018-09-28T04:11:30.276Z,10.00
2018-09-28T04:13:58.119Z,12.00
2018-09-28T04:16:26.477Z,9.80
2018-09-28T04:18:54.014Z,7.00
2018-09-28T04:21:22.088Z,10.40
2018-09-28T04:23:50.021Z,11.20
2018-09-28T04:26:17.537Z,7.00
2018-09-28T04:28:45.028Z,12.00
2018-09-28T04:31:12.977Z,12.20
2018-09-28T04:33:40.511Z,10.80
2018-09-28T04:36:08.076Z,9.60
2018-09-28T04:38:35.992Z,11.20
2018-09-28T04:41:03.530Z,11.00
2018-09-28T04:43:32.718Z,13.60
2018-09-28T04:46:00.627Z,13.00
2018-09-28T04:48:28.162Z,12.80
2018-09-28T04:50:55.638Z,7.00
2018-09-28T04:53:23.575Z,11.60
2018-09-28T04:55:51.235Z,15.20
2018-09-28T04:58:20.237Z,11.20
2018-09-28T05:00:48.872Z,11.20
2018-09-28T05:03:16.427Z,15.80
2018-09-28T05:05:43.899Z,14.60
2018-09-28T05:08:11.824Z,15.40
2018-09-28T05:10:39.478Z,12.00
2018-09-28T05:13:07.048Z,15.00
2018-09-28T05:15:36.045Z,11.80
2018-09-28T05:18:03.547Z,14.20
2018-09-28T05:20:31.052Z,12.60
2018-09-28T05:22:59.106Z,13.00
2018-09-28T05:25:26.705Z,13.00
2018-09-28T05:27:55.104Z,10.40
2018-09-28T05:30:23.045Z,14.60
2018-09-28T05:32:50.758Z,10.00
2018-09-28T05:35:18.135Z,12.40
2018-09-28T05:37:46.128Z,13.00
2018-09-28T05:40:13.654Z,11.60
2018-09-28T05:42:41.180Z,14.60
2018-09-28T05:45:08.970Z,17.20
2018-09-28T05:47:36.526Z,13.60
2018-09-28T05:50:04.050Z,11.80
2018-09-28T05:52:31.959Z,12.60
2018-09-28T05:54:59.487Z,15.20
2018-09-28T05:57:26.979Z,13.20
2018-09-28T06:00:00.020Z,13.00
2018-09-28T06:02:32.731Z,14.20
2018-09-28T06:05:05.320Z,13.40
2018-09-28T06:07:34.230Z,15.20
2018-09-28T06:10:02.444Z,17.80
2018-09-28T06:12:31.703Z,18.20
2018-09-28T06:15:00.002Z,18.20
2018-09-28T06:17:27.515Z,16.00
2018-09-28T06:19:55.059Z,13.80
2018-09-28T06:22:22.988Z,15.00
2018-09-28T06:24:50.484Z,15.20
2018-09-28T06:27:17.971Z,17.20
2018-09-28T06:29:47.002Z,17.20
2018-09-28T06:32:14.617Z,15.20
2018-09-28T06:34:43.323Z,15.20
2018-09-28T06:37:13.910Z,15.80
2018-09-28T06:39:41.651Z,14.60
2018-09-28T06:42:12.908Z,16.60
2018-09-28T06:44:40.770Z,15.60
2018-09-28T06:47:10.226Z,15.20
2018-09-28T06:49:38.052Z,14.80
2018-09-28T06:52:10.275Z,17.20
2018-09-28T06:54:39.292Z,15.60
2018-09-28T06:57:07.459Z,13.40
2018-09-28T06:59:37.292Z,15.80
2018-09-28T07:02:04.795Z,14.40
2018-09-28T07:04:33.956Z,15.80
2018-09-28T07:07:02.135Z,20.20
2018-09-28T07:09:29.735Z,12.60
2018-09-28T07:11:57.487Z,18.20
2018-09-28T07:14:26.220Z,24.00
2018-09-28T07:16:53.809Z,21.00
2018-09-28T07:19:21.540Z,17.20
2018-09-28T07:21:49.366Z,18.80
2018-09-28T07:24:20.556Z,27.00
2018-09-28T07:26:48.073Z,15.80
2018-09-28T07:29:15.636Z,20.00
2018-09-28T07:31:43.168Z,18.20
2018-09-28T07:34:11.978Z,24.80
2018-09-28T07:36:39.598Z,21.00
2018-09-28T07:39:07.059Z,23.40
2018-09-28T07:41:34.971Z,18.60
2018-09-28T07:44:02.555Z,17.40
2018-09-28T07:46:30.069Z,15.80
2018-09-28T07:48:58.019Z,21.40
2018-09-28T07:51:26.351Z,18.60
2018-09-28T07:53:53.890Z,19.20
2018-09-28T07:56:21.859Z,18.60
2018-09-28T07:58:49.397Z,25.80
2018-09-28T08:01:17.868Z,24.40
2018-09-28T08:03:45.805Z,23.80
2018-09-28T08:06:13.410Z,22.40
2018-09-28T08:08:40.913Z,20.20
2018-09-28T08:11:10.580Z,24.00
2018-09-28T08:13:38.903Z,23.80
2018-09-28T08:16:08.699Z,19.60
2018-09-28T08:18:37.507Z,21.80
2018-09-28T08:21:05.284Z,29.40
2018-09-28T08:23:32.866Z,24.00
2018-09-28T08:26:00.923Z,24.80
2018-09-28T08:28:28.538Z,29.20
2018-09-28T08:30:56.094Z,24.40
2018-09-28T08:33:24.083Z,27.80
2018-09-28T08:35:51.592Z,24.80
2018-09-28T08:38:19.075Z,25.40
2018-09-28T08:40:50.542Z,23.40
2018-09-28T08:43:18.648Z,28.80
2018-09-28T08:45:46.173Z,28.60
2018-09-28T08:48:14.144Z,23.60
2018-09-28T08:50:42.950Z,25.40
2018-09-28T08:53:10.546Z,24.40
2018-09-28T08:55:38.737Z,23.60
2018-09-28T08:58:06.281Z,26.20
2018-09-28T09:00:34.819Z,21.00
2018-09-28T09:03:05.075Z,29.80
2018-09-28T09:05:32.616Z,24.40
2018-09-28T09:08:00.131Z,23.20
2018-09-28T09:10:29.427Z,18.40
2018-09-28T09:12:58.006Z,19.40
2018-09-28T09:15:26.235Z,12.80
2018-09-28T09:17:57.230Z,19.40
2018-09-28T09:20:25.426Z,12.80
2018-09-28T09:22:54.691Z,10.80
2018-09-28T09:25:23.618Z,14.20
2018-09-28T09:27:51.187Z,6.00
2018-09-28T09:30:19.627Z,9.80
2018-09-28T09:32:48.346Z,5.60
2018-09-28T09:35:16.138Z,6.20
2018-09-28T09:37:44.362Z,6.80
2018-09-28T09:40:13.431Z,5.20
2018-09-28T09:42:42.346Z,4.00
2018-09-28T09:45:13.837Z,3.00
2018-09-28T09:47:42.579Z,1.80
2018-09-28T09:50:11.447Z,3.80
2018-09-28T09:52:40.592Z,6.00
2018-09-28T09:55:09.655Z,6.00
2018-09-28T09:57:37.243Z,1.40
2018-09-28T10:00:05.439Z,0.60
2018-09-28T10:02:38.485Z,4.00
2018-09-28T10:05:06.049Z,6.20
2018-09-28T10:07:33.531Z,4.40
2018-09-28T10:10:01.108Z,3.20
2018-09-28T10:12:29.434Z,3.20
2018-09-28T10:14:57.991Z,3.00
2018-09-28T10:17:25.559Z,5.60
2018-09-28T10:19:53.089Z,2.60
2018-09-28T10:22:22.483Z,3.60
2018-09-28T10:24:50.040Z,1.00
2018-09-28T10:27:17.639Z,8.20
2018-09-28T10:29:46.142Z,5.60
2018-09-28T10:32:15.577Z,4.00
2018-09-28T10:34:44.412Z,3.40
2018-09-28T10:37:12.585Z,1.00
2018-09-28T10:39:42.426Z,4.00
2018-09-28T10:42:16.370Z,1.80
2018-09-28T10:44:43.887Z,3.60
2018-09-28T10:47:12.220Z,0.00
2018-09-28T10:49:47.403Z,3.20
2018-09-28T10:52:15.768Z,1.00
2018-09-28T10:54:44.270Z,0.80
2018-09-28T10:57:13.874Z,1.40
2018-09-28T10:59:42.425Z,0.00
2018-09-28T11:02:12.282Z,1.00
2018-09-28T11:12:49.683Z,3.00
2018-09-28T11:15:18.344Z,2.20
2018-09-28T11:17:46.241Z,1.00
2018-09-28T11:20:15.578Z,1.00
2018-09-28T11:22:44.135Z,1.00
2018-09-28T11:25:14.765Z,1.20
2018-09-28T11:27:43.670Z,1.00
2018-09-28T11:30:11.543Z,1.00
2018-09-28T11:32:39.124Z,1.00
2018-09-28T11:35:10.268Z,1.40
2018-09-28T11:37:39.056Z,1.00
2018-09-28T11:40:07.303Z,1.40
2018-09-28T11:42:34.844Z,0.00
2018-09-28T11:45:07.286Z,0.00
2018-09-28T11:47:37.760Z,3.20
2018-09-28T11:50:05.289Z,0.60
2018-09-28T11:52:35.011Z,1.00
2018-09-28T11:55:02.697Z,0.80
2018-09-28T11:57:30.495Z,0.00
2018-09-28T12:00:03.306Z,1.00
2018-09-28T12:02:32.108Z,0.60
2018-09-28T12:05:00.721Z,1.00
2018-09-28T12:07:28.580Z,1.00
2018-09-28T12:09:56.101Z,2.60
2018-09-28T12:12:24.347Z,2.60
2018-09-28T12:14:52.199Z,0.00
2018-09-28T12:17:20.535Z,0.00
2018-09-28T12:19:49.693Z,0.00
2018-09-28T12:22:17.594Z,0.80
2018-09-28T12:24:45.384Z,0.80
2018-09-28T12:27:12.948Z,1.00
2018-09-28T12:29:41.835Z,3.80
2018-09-28T12:32:09.565Z,0.00
2018-09-28T12:34:37.104Z,1.40
2018-09-28T12:37:05.035Z,1.00
2018-09-28T12:39:35.140Z,0.40
2018-09-28T12:42:02.600Z,0.20
2018-09-28T12:44:31.463Z,0.20
2018-09-28T12:47:00.627Z,1.40
2018-09-28T12:49:29.207Z,0.40
2018-09-28T12:52:02.732Z,0.00
2018-09-28T12:54:33.135Z,0.00
2018-09-28T12:57:01.173Z,1.00
2018-09-28T12:59:31.650Z,0.60
2018-09-28T13:01:59.205Z,1.00
2018-09-28T13:04:26.708Z,2.60
2018-09-28T13:06:54.220Z,0.20
2018-09-28T13:09:21.738Z,0.00
2018-09-28T13:11:50.956Z,0.00
2018-09-28T13:14:19.413Z,0.60
2018-09-28T13:16:47.551Z,0.00
2018-09-28T13:19:15.545Z,0.00
2018-09-28T13:21:43.116Z,1.80
2018-09-28T13:24:10.677Z,0.40
2018-09-28T13:26:39.107Z,1.00
2018-09-28T13:29:07.709Z,0.00
2018-09-28T13:31:35.259Z,0.00
2018-09-28T13:34:03.199Z,1.00
2018-09-28T13:36:33.394Z,3.00
2018-09-28T13:39:00.939Z,1.80
2018-09-28T13:41:29.827Z,2.60
2018-09-28T13:43:57.394Z,0.00
2018-09-28T13:46:24.933Z,0.80
2018-09-28T13:48:52.872Z,0.00
2018-09-28T13:51:20.352Z,1.00
2018-09-28T13:53:47.973Z,0.20
2018-09-28T13:56:15.890Z,1.40
2018-09-28T13:58:44.455Z,0.80
2018-09-28T14:01:12.227Z,2.60
2018-09-28T14:03:42.711Z,1.00
2018-09-28T14:06:11.232Z,0.80
2018-09-28T14:08:39.423Z,0.00
2018-09-28T14:11:09.351Z,5.20
2018-09-28T14:13:36.922Z,3.00
2018-09-28T14:16:04.472Z,1.00
2018-09-28T14:18:32.371Z,0.60
2018-09-28T14:20:59.883Z,3.00
2018-09-28T14:23:27.441Z,1.00
2018-09-28T14:25:55.299Z,0.60
2018-09-28T14:28:22.857Z,1.00
2018-09-28T14:30:50.776Z,0.40
2018-09-28T14:33:18.721Z,1.00
2018-09-28T14:35:46.248Z,0.00
2018-09-28T14:38:15.454Z,0.60
2018-09-28T14:40:43.384Z,0.00
2018-09-28T14:43:11.931Z,0.60
2018-09-28T14:45:39.514Z,1.00
2018-09-28T14:48:07.387Z,1.00
2018-09-28T14:50:35.547Z,0.40
2018-09-28T14:53:03.093Z,3.00
2018-09-28T14:55:31.629Z,0.60
2018-09-28T14:58:01.291Z,1.00
2018-09-28T15:00:29.745Z,0.60
2018-09-28T15:02:57.689Z,0.40
2018-09-28T15:05:25.194Z,0.80
2018-09-28T15:07:53.644Z,0.60
2018-09-28T15:10:22.490Z,3.00
2018-09-28T15:12:50.048Z,0.00
2018-09-28T15:15:17.635Z,1.00
2018-09-28T15:17:45.651Z,0.00
2018-09-28T15:20:13.193Z,0.00
2018-09-28T15:22:41.485Z,1.00
2018-09-28T15:25:13.570Z,0.20
2018-09-28T15:27:41.315Z,0.00
2018-09-28T15:30:09.283Z,0.60
2018-09-28T15:32:38.073Z,1.00
2018-09-28T15:35:05.639Z,1.00
2018-09-28T15:37:33.139Z,0.60
2018-09-28T15:40:01.142Z,0.00
2018-09-28T15:42:28.731Z,0.00
2018-09-28T15:44:56.276Z,0.00
2018-09-28T15:47:24.228Z,0.60
2018-09-28T15:49:51.802Z,0.20
2018-09-28T15:52:19.471Z,0.00
2018-09-28T15:54:47.301Z,0.00
2018-09-28T15:57:15.646Z,0.00
2018-09-28T15:59:43.312Z,1.00
2018-09-28T16:02:11.324Z,0.00
2018-09-28T16:04:38.841Z,0.20
2018-09-28T16:22:57.557Z,3.00
2018-09-28T16:25:29.981Z,0.80
2018-09-28T16:27:57.577Z,0.40
2018-09-28T16:33:03.793Z,0.00
2018-09-28T16:35:32.427Z,0.00
2018-09-28T16:38:01.003Z,1.00
2018-09-28T16:40:29.021Z,0.00
2018-09-28T16:42:57.091Z,1.00
2018-09-28T16:45:24.884Z,0.20
2018-09-28T16:47:54.351Z,0.20
2018-09-28T16:50:23.010Z,0.60
2018-09-28T16:52:50.564Z,0.20
2018-09-28T16:55:18.512Z,1.40
2018-09-28T16:57:46.096Z,3.00
2018-09-28T17:00:13.751Z,1.40
2018-09-28T17:02:41.668Z,0.80
2018-09-28T17:05:09.213Z,0.00
2018-09-28T17:07:36.782Z,1.00
2018-09-28T17:10:04.689Z,1.40
2018-09-28T17:12:33.353Z,0.80
2018-09-28T17:15:02.204Z,1.00
2018-09-28T17:17:30.229Z,0.00
2018-09-28T17:30:31.464Z,0.20
2018-09-28T17:32:59.443Z,0.00
2018-09-28T17:35:27.387Z,1.00
2018-09-28T17:37:55.583Z,1.00
2018-09-28T17:40:23.219Z,1.40
2018-09-28T17:42:51.189Z,0.40
2018-09-28T17:45:19.800Z,0.80
2018-09-28T17:47:49.078Z,1.00
2018-09-28T17:50:18.167Z,3.00
2018-09-28T17:52:46.775Z,1.00
2018-09-28T17:55:14.471Z,1.00
2018-09-28T17:57:42.604Z,0.00
2018-09-28T18:00:10.705Z,0.20
2018-09-28T18:02:38.304Z,0.00
2018-09-28T18:05:06.429Z,0.00
2018-09-28T18:07:34.733Z,0.00
2018-09-28T18:10:02.341Z,1.40
2018-09-28T18:12:31.831Z,1.80
2018-09-28T18:15:00.315Z,3.00
2018-09-28T18:17:30.859Z,3.40
2018-09-28T18:19:58.953Z,3.00
2018-09-28T18:22:27.325Z,3.00
2018-09-28T18:24:54.998Z,1.00
2018-09-28T18:27:25.369Z,2.20
2018-09-28T18:29:55.360Z,3.00
2018-09-28T18:32:22.910Z,3.00
2018-09-28T18:34:52.497Z,3.00
2018-09-28T18:37:23.371Z,3.80
2018-09-28T18:39:52.701Z,3.20
2018-09-28T18:42:21.603Z,3.40
2018-09-28T18:44:49.156Z,3.00
2018-09-28T18:47:17.394Z,4.00
2018-09-28T18:49:46.209Z,3.00
2018-09-28T18:52:14.632Z,4.00
2018-09-28T18:54:43.056Z,2.60
2018-09-28T18:57:11.304Z,1.00
2018-09-28T18:59:40.063Z,1.00
2018-09-28T19:02:08.247Z,1.00
2018-09-28T19:04:37.325Z,1.00
2018-09-28T19:07:07.098Z,1.00
2018-09-28T19:09:34.668Z,3.60
2018-09-28T19:12:04.316Z,5.60
2018-09-28T19:14:33.377Z,6.20
2018-09-28T19:17:04.473Z,6.00
2018-09-28T19:19:35.886Z,4.80
2018-09-28T19:22:03.479Z,4.80
2018-09-28T19:24:31.629Z,8.80
2018-09-28T19:27:00.241Z,9.20
2018-09-28T19:29:30.767Z,4.00
2018-09-28T19:31:59.743Z,4.00
2018-09-28T19:34:29.461Z,3.40
2018-09-28T19:36:57.861Z,1.80
2018-09-28T19:39:25.621Z,0.00
2018-09-28T19:41:54.563Z,1.00
2018-09-28T19:44:25.889Z,1.00
2018-09-28T19:46:53.473Z,1.40
2018-09-28T19:49:21.474Z,3.00
2018-09-28T19:51:49.015Z,2.20
2018-09-28T19:54:16.571Z,1.00
2018-09-28T19:56:44.465Z,1.00
2018-09-28T19:59:12.709Z,3.80
2018-09-28T20:01:41.616Z,1.40
2018-09-28T20:04:09.480Z,1.00
2018-09-28T20:06:38.339Z,3.00
2018-09-28T20:09:06.680Z,3.80
2018-09-28T20:11:34.548Z,2.60
2018-09-28T20:14:05.842Z,2.20
2018-09-28T20:16:33.406Z,2.20
2018-09-28T20:19:01.418Z,0.40
2018-09-28T20:21:29.675Z,3.60
2018-09-28T20:24:00.381Z,1.00
2018-09-28T20:26:31.961Z,1.00
2018-09-28T20:29:00.486Z,1.00
2018-09-28T20:31:30.007Z,2.20
2018-09-28T20:33:59.968Z,1.00
2018-09-28T20:36:28.424Z,1.40
2018-09-28T20:38:56.829Z,1.00
2018-09-28T20:41:25.701Z,3.00
2018-09-28T20:43:53.230Z,2.60
2018-09-28T20:46:21.544Z,0.80
2018-09-28T20:48:50.353Z,2.60
2018-09-28T20:51:19.102Z,1.00
2018-09-28T20:53:47.317Z,1.00
2018-09-28T20:56:16.403Z,5.60
2018-09-28T20:58:44.722Z,2.20
2018-09-28T21:01:15.383Z,3.00
2018-09-28T21:03:44.713Z,0.20
2018-09-28T21:06:12.551Z,2.60
2018-09-28T21:08:40.154Z,2.20
2018-09-28T21:11:08.679Z,1.00
2018-09-28T21:13:37.373Z,1.40
2018-09-28T21:16:05.591Z,1.00
2018-09-28T21:18:33.614Z,3.80
2018-09-28T21:21:01.205Z,1.80
2018-09-28T21:23:28.838Z,3.00
2018-09-28T21:25:57.585Z,2.60
2018-09-28T21:28:25.171Z,3.00
2018-09-28T21:30:52.704Z,3.60
2018-09-28T21:33:20.775Z,3.00
2018-09-28T21:35:49.281Z,3.00
2018-09-28T21:38:16.811Z,4.00
2018-09-28T21:40:45.623Z,3.00
2018-09-28T21:43:13.374Z,3.00
2018-09-28T21:45:40.930Z,1.00
2018-09-28T21:48:08.958Z,3.00
2018-09-28T21:50:36.561Z,3.00
2018-09-28T21:53:04.136Z,3.00
2018-09-28T21:55:32.206Z,3.00
2018-09-28T21:58:00.430Z,3.00
2018-09-28T22:00:27.969Z,1.80
2018-09-28T22:02:56.494Z,3.00
2018-09-28T22:05:24.808Z,1.00
2018-09-28T22:07:53.310Z,1.00
2018-09-28T22:10:23.596Z,3.20
2018-09-28T22:12:53.410Z,1.00
2018-09-28T22:15:21.649Z,3.00
2018-09-28T22:17:49.487Z,3.60
2018-09-28T22:20:17.951Z,1.40
2018-09-28T22:22:45.487Z,1.00
2018-09-28T22:25:14.158Z,3.60
2018-09-28T22:27:41.759Z,3.00
2018-09-28T22:30:09.318Z,1.00
2018-09-28T22:32:36.865Z,3.00
2018-09-28T22:35:04.781Z,2.80
2018-09-28T22:37:32.319Z,0.80
2018-09-28T22:40:00.864Z,3.00
2018-09-28T22:42:28.411Z,1.00
2018-09-28T22:44:57.549Z,2.60
2018-09-28T22:47:25.113Z,3.60
2018-09-28T22:49:52.665Z,0.80
2018-09-28T22:52:20.666Z,1.40
2018-09-28T22:54:48.230Z,2.20
2018-09-28T22:57:15.772Z,1.00
2018-09-28T22:59:44.300Z,2.60
2018-09-28T23:02:11.878Z,1.00
2018-09-28T23:04:40.113Z,1.00
2018-09-28T23:07:09.413Z,1.00
2018-09-28T23:09:36.959Z,3.20
2018-09-28T23:12:04.473Z,1.40
2018-09-28T23:14:33.383Z,2.20
2018-09-28T23:17:01.386Z,1.00
2018-09-28T23:19:29.772Z,1.00
2018-09-28T23:21:57.327Z,1.40
2018-09-28T23:24:25.241Z,1.80
2018-09-28T23:26:53.679Z,3.00
2018-09-28T23:29:21.364Z,1.40
2018-09-28T23:31:49.382Z,1.40
2018-09-28T23:34:16.931Z,1.00
2018-09-28T23:36:44.530Z,1.40
2018-09-28T23:39:12.516Z,2.60
2018-09-28T23:41:40.724Z,1.40
2018-09-28T23:44:08.559Z,3.00
2018-09-28T23:46:37.515Z,1.80
2018-09-28T23:49:05.264Z,1.00
2018-09-28T23:51:32.838Z,1.00
2018-09-28T23:54:00.823Z,3.20
2018-09-28T23:56:28.531Z,1.80
2018-09-28T23:58:57.482Z,3.00
